Time;durP1;ratioP1;P1;durP2;ratioP2;P2;SDS_P1;SDS_P2;PMS_P1;PMS_P2;Temp;Humidity;BMP_temperature;BMP_pressure;BME280_temperature;BME280_humidity;BME280_pressure;Samples;Min_cycle;Max_cycle;Signal;HPM_P1;HPM_P2
2023/09/27 00:00:14;;;;;;;8.70;7.77;;;14.20;99.90;;;;;;4991155;28;20251;-86
2023/09/27 00:02:43;;;;;;;9.20;8.30;;;14.20;99.90;;;;;;4976110;28;20192;-86
2023/09/27 00:05:10;;;;;;;10.77;8.40;;;14.10;99.90;;;;;;4993196;28;20713;-86
2023/09/27 00:07:37;;;;;;;10.40;8.40;;;14.10;99.90;;;;;;4989315;28;20204;-85
2023/09/27 00:10:12;;;;;;;11.00;9.47;;;14.10;99.90;;;;;;4973775;28;20589;-86
2023/09/27 00:12:39;;;;;;;10.70;9.17;;;14.10;99.90;;;;;;4985739;28;20612;-86
2023/09/27 00:15:08;;;;;;;12.53;10.20;;;14.10;99.90;;;;;;4981675;28;20216;-86
2023/09/27 00:17:34;;;;;;;14.00;11.03;;;14.10;99.90;;;;;;4986752;28;20248;-85
2023/09/27 00:19:59;;;;;;;10.67;9.27;;;14.10;99.90;;;;;;4972450;28;20192;-86
2023/09/27 00:22:25;;;;;;;10.87;9.03;;;14.10;99.90;;;;;;4991313;28;20271;-86
2023/09/27 00:24:51;;;;;;;16.13;9.93;;;14.10;99.90;;;;;;4991400;28;20177;-86
2023/09/27 00:27:17;;;;;;;10.73;9.63;;;14.10;99.90;;;;;;4988425;28;20468;-86
2023/09/27 00:29:43;;;;;;;12.27;10.70;;;14.10;99.90;;;;;;4987226;28;20195;-86
2023/09/27 00:32:08;;;;;;;11.47;10.23;;;14.10;99.90;;;;;;4991072;28;20196;-86
2023/09/27 00:34:34;;;;;;;14.30;9.90;;;14.10;99.90;;;;;;4975031;28;20184;-85
2023/09/27 00:37:00;;;;;;;10.57;9.47;;;14.10;99.90;;;;;;4992136;28;20287;-86
2023/09/27 00:39:26;;;;;;;13.00;11.00;;;14.00;99.90;;;;;;4987577;28;20695;-86
2023/09/27 00:41:51;;;;;;;12.13;9.53;;;14.00;99.90;;;;;;4990956;28;20674;-85
2023/09/27 00:44:17;;;;;;;14.13;10.70;;;14.00;99.90;;;;;;4991094;28;20180;-85
2023/09/27 00:46:44;;;;;;;12.03;10.73;;;13.90;99.90;;;;;;4985275;28;20438;-85
2023/09/27 00:49:13;;;;;;;12.73;10.63;;;13.90;99.90;;;;;;4985179;28;20192;-86
2023/09/27 00:51:39;;;;;;;12.93;11.43;;;13.90;99.90;;;;;;4985179;28;20211;-86
2023/09/27 00:54:06;;;;;;;12.23;11.03;;;13.90;99.90;;;;;;4991946;28;20189;-88
2023/09/27 00:56:32;;;;;;;12.17;10.47;;;13.90;99.90;;;;;;4991454;28;20258;-86
2023/09/27 00:58:58;;;;;;;13.20;10.50;;;14.00;99.90;;;;;;4982035;28;20190;-86
2023/09/27 01:01:26;;;;;;;13.60;11.20;;;13.90;99.90;;;;;;4983310;28;20328;-86
2023/09/27 01:03:53;;;;;;;12.20;10.80;;;13.90;99.90;;;;;;4987403;28;20229;-86
2023/09/27 01:06:19;;;;;;;12.30;9.57;;;13.90;99.90;;;;;;4992080;28;20211;-86
2023/09/27 01:08:46;;;;;;;11.60;9.43;;;13.90;99.90;;;;;;4989810;28;20185;-86
2023/09/27 01:11:12;;;;;;;11.07;9.97;;;13.90;99.90;;;;;;4992835;28;20205;-86
2023/09/27 01:13:39;;;;;;;10.17;9.13;;;13.90;99.90;;;;;;4978366;28;20181;-86
2023/09/27 01:16:05;;;;;;;10.07;9.03;;;13.80;99.90;;;;;;4991274;28;20212;-87
2023/09/27 01:18:30;;;;;;;9.50;8.60;;;13.80;99.90;;;;;;4991496;28;20585;-86
2023/09/27 01:20:56;;;;;;;12.43;9.27;;;13.80;99.90;;;;;;4986756;28;20741;-85
2023/09/27 01:23:22;;;;;;;12.57;9.27;;;13.80;99.90;;;;;;4988079;28;20663;-86
2023/09/27 01:25:56;;;;;;;10.03;9.03;;;13.70;99.90;;;;;;4988485;28;20231;-86
2023/09/27 01:28:22;;;;;;;9.67;8.70;;;13.70;99.90;;;;;;4991705;28;20176;-86
2023/09/27 01:30:47;;;;;;;9.63;8.63;;;13.70;99.90;;;;;;4994573;28;20211;-86
2023/09/27 01:33:13;;;;;;;10.00;8.83;;;13.70;99.90;;;;;;4994163;28;20181;-85
2023/09/27 01:35:41;;;;;;;10.97;9.43;;;13.60;99.90;;;;;;4996113;28;20197;-86
2023/09/27 01:38:08;;;;;;;10.47;9.40;;;13.50;99.90;;;;;;4991771;28;20235;-86
2023/09/27 01:40:38;;;;;;;10.80;9.70;;;13.40;99.90;;;;;;4996031;28;20176;-86
2023/09/27 01:43:04;;;;;;;10.07;9.07;;;13.40;99.90;;;;;;4994274;28;20212;-86
2023/09/27 01:45:31;;;;;;;10.73;9.43;;;13.40;99.90;;;;;;4994563;28;20204;-86
2023/09/27 01:48:01;;;;;;;9.27;8.37;;;13.40;99.90;;;;;;4988378;28;20198;-86
2023/09/27 01:50:28;;;;;;;9.80;8.83;;;13.40;99.90;;;;;;4979147;28;20623;-86
2023/09/27 01:52:56;;;;;;;11.00;9.80;;;13.30;99.90;;;;;;4987901;28;20171;-86
2023/09/27 01:55:23;;;;;;;10.97;8.57;;;13.30;99.90;;;;;;4994370;28;20714;-85
2023/09/27 01:57:49;;;;;;;10.20;8.50;;;13.30;99.90;;;;;;4984825;28;20261;-85
2023/09/27 02:00:17;;;;;;;10.23;9.10;;;13.30;99.90;;;;;;4992745;28;20196;-86
2023/09/27 02:02:49;;;;;;;10.40;9.43;;;13.30;99.90;;;;;;4986863;28;20287;-85
2023/09/27 02:05:15;;;;;;;9.57;8.57;;;13.20;99.90;;;;;;4976619;28;20176;-86
2023/09/27 02:07:41;;;;;;;10.47;9.00;;;13.20;99.90;;;;;;4982655;28;20200;-85
2023/09/27 02:10:11;;;;;;;11.03;9.37;;;13.10;99.90;;;;;;4992668;28;20200;-86
2023/09/27 02:12:38;;;;;;;9.63;8.73;;;13.10;99.90;;;;;;4996008;28;20169;-85
2023/09/27 02:15:08;;;;;;;10.63;8.60;;;13.00;99.90;;;;;;4988164;28;20659;-85
2023/09/27 02:17:36;;;;;;;9.93;8.90;;;13.00;99.90;;;;;;4981542;28;20233;-85
2023/09/27 02:20:12;;;;;;;11.33;8.50;;;13.00;99.90;;;;;;4992112;28;20180;-85
2023/09/27 02:22:40;;;;;;;10.17;8.77;;;13.00;99.90;;;;;;4993708;28;20181;-85
2023/09/27 02:25:09;;;;;;;9.23;8.33;;;12.90;99.90;;;;;;4987986;28;20188;-86
2023/09/27 02:27:36;;;;;;;10.13;9.00;;;12.90;99.90;;;;;;4991487;28;20197;-85
2023/09/27 02:30:03;;;;;;;12.47;8.10;;;12.90;99.90;;;;;;4994077;28;20777;-85
2023/09/27 02:32:29;;;;;;;9.23;8.33;;;12.80;99.90;;;;;;4974709;28;20200;-86
2023/09/27 02:34:54;;;;;;;8.93;8.03;;;12.90;99.90;;;;;;4965980;28;20280;-85
2023/09/27 02:37:20;;;;;;;10.37;8.73;;;12.80;99.90;;;;;;4989389;28;20201;-85
2023/09/27 02:39:46;;;;;;;9.67;8.73;;;12.80;99.90;;;;;;4995367;28;20187;-85
2023/09/27 02:42:12;;;;;;;10.37;9.27;;;12.90;99.90;;;;;;4993345;28;20291;-85
2023/09/27 02:44:39;;;;;;;12.07;10.13;;;12.90;99.90;;;;;;4985346;28;20260;-85
2023/09/27 02:47:06;;;;;;;11.93;9.07;;;12.80;99.90;;;;;;4985216;28;20211;-86
2023/09/27 02:49:35;;;;;;;15.43;9.23;;;12.80;99.90;;;;;;4973795;28;20220;-87
2023/09/27 02:52:01;;;;;;;12.23;10.67;;;12.80;99.90;;;;;;4991003;28;20205;-85
2023/09/27 02:54:29;;;;;;;13.07;11.67;;;12.80;99.90;;;;;;4993085;28;20200;-86
2023/09/27 02:56:55;;;;;;;14.23;11.43;;;12.80;99.90;;;;;;4990897;28;20224;-85
2023/09/27 02:59:20;;;;;;;12.67;11.47;;;12.70;99.90;;;;;;4992436;28;20221;-85
2023/09/27 03:01:46;;;;;;;15.37;12.10;;;12.70;99.90;;;;;;4985084;28;20176;-85
2023/09/27 03:04:15;;;;;;;14.07;12.57;;;12.70;99.90;;;;;;4977162;28;20204;-86
2023/09/27 03:06:41;;;;;;;14.93;12.67;;;12.70;99.90;;;;;;4991998;28;20248;-86
2023/09/27 03:09:11;;;;;;;15.17;11.73;;;12.80;99.90;;;;;;4992852;28;20409;-85
2023/09/27 03:11:38;;;;;;;15.00;12.17;;;12.80;99.90;;;;;;4992775;28;20208;-85
2023/09/27 03:14:06;;;;;;;14.80;13.23;;;12.70;99.90;;;;;;4994508;28;20541;-86
2023/09/27 03:16:32;;;;;;;13.67;12.20;;;12.80;99.90;;;;;;4983876;28;20197;-86
2023/09/27 03:18:58;;;;;;;13.97;12.30;;;12.80;99.90;;;;;;4994733;28;20572;-85
2023/09/27 03:21:29;;;;;;;16.70;12.80;;;12.80;99.90;;;;;;4991210;28;20180;-86
2023/09/27 03:23:55;;;;;;;16.53;14.03;;;12.80;99.90;;;;;;4981547;28;20394;-85
2023/09/27 03:26:22;;;;;;;16.37;12.40;;;12.70;99.90;;;;;;4988937;28;20233;-86
2023/09/27 03:28:50;;;;;;;14.70;13.20;;;12.80;99.90;;;;;;4992892;28;20595;-86
2023/09/27 03:31:15;;;;;;;17.00;13.80;;;12.70;99.90;;;;;;4992126;28;20592;-85
2023/09/27 03:33:41;;;;;;;15.63;13.33;;;12.70;99.90;;;;;;4992450;28;20199;-85
2023/09/27 03:36:07;;;;;;;17.03;14.27;;;12.70;99.90;;;;;;4983022;28;20648;-86
2023/09/27 03:38:33;;;;;;;16.00;13.83;;;12.70;99.90;;;;;;4994045;28;20189;-85
2023/09/27 03:40:58;;;;;;;21.10;13.53;;;12.70;99.90;;;;;;4992604;28;20268;-85
2023/09/27 03:43:24;;;;;;;18.20;14.33;;;12.70;99.90;;;;;;4985164;28;20604;-86
2023/09/27 03:45:51;;;;;;;15.97;14.27;;;12.70;99.90;;;;;;4989328;28;20204;-87
2023/09/27 03:48:17;;;;;;;16.67;14.57;;;12.70;99.90;;;;;;4990528;28;20189;-86
2023/09/27 03:50:42;;;;;;;20.63;15.50;;;12.60;99.90;;;;;;4976207;28;20622;-86
2023/09/27 03:53:08;;;;;;;20.27;17.13;;;12.70;99.90;;;;;;4992411;28;20730;-86
2023/09/27 03:55:33;;;;;;;22.07;17.43;;;12.70;99.90;;;;;;4984155;28;20203;-86
2023/09/27 03:57:59;;;;;;;27.53;18.10;;;12.80;99.90;;;;;;4971793;28;20185;-87
2023/09/27 04:00:25;;;;;;;21.70;17.83;;;12.80;99.90;;;;;;4991745;28;20200;-86
2023/09/27 04:02:51;;;;;;;20.33;17.97;;;12.90;99.90;;;;;;4992483;28;20185;-87
2023/09/27 04:05:18;;;;;;;19.10;16.00;;;12.90;99.90;;;;;;4985860;28;20569;-87
2023/09/27 04:07:44;;;;;;;22.07;15.83;;;12.90;99.90;;;;;;4983029;28;20273;-87
2023/09/27 04:10:10;;;;;;;20.33;16.00;;;12.90;99.90;;;;;;4982212;28;20209;-86
2023/09/27 04:12:36;;;;;;;20.70;16.07;;;12.90;99.90;;;;;;4984838;28;20714;-88
2023/09/27 04:15:04;;;;;;;23.43;18.67;;;12.90;99.90;;;;;;4991855;28;20268;-86
2023/09/27 04:17:30;;;;;;;19.70;16.00;;;12.80;99.90;;;;;;4985652;28;20239;-89
2023/09/27 04:19:56;;;;;;;20.10;16.73;;;12.80;99.90;;;;;;4991680;28;20223;-86
2023/09/27 04:22:22;;;;;;;21.27;16.50;;;12.70;99.90;;;;;;4993039;28;20652;-86
2023/09/27 04:24:47;;;;;;;19.23;15.40;;;12.70;99.90;;;;;;4988399;28;20557;-87
2023/09/27 04:27:13;;;;;;;17.40;14.70;;;12.70;99.90;;;;;;4987316;28;20204;-87
2023/09/27 04:29:38;;;;;;;19.87;14.50;;;12.60;99.90;;;;;;4992187;28;20256;-86
2023/09/27 04:32:05;;;;;;;20.70;15.37;;;12.70;99.90;;;;;;4992339;28;20262;-86
2023/09/27 04:34:32;;;;;;;21.50;13.80;;;12.70;99.90;;;;;;4985253;28;20181;-87
2023/09/27 04:36:58;;;;;;;21.87;14.47;;;12.70;99.90;;;;;;4986823;28;20266;-87
2023/09/27 04:39:27;;;;;;;17.37;13.63;;;12.60;99.90;;;;;;4983686;28;20176;-87
2023/09/27 04:41:53;;;;;;;18.93;14.60;;;12.60;99.90;;;;;;4989302;28;20528;-87
2023/09/27 04:44:19;;;;;;;20.90;15.23;;;12.60;99.90;;;;;;4995648;28;20243;-87
2023/09/27 04:46:44;;;;;;;18.17;14.47;;;12.60;99.90;;;;;;4990311;28;20212;-87
2023/09/27 04:49:10;;;;;;;17.47;13.87;;;12.60;99.90;;;;;;4995340;28;20177;-86
2023/09/27 04:51:36;;;;;;;18.70;14.83;;;12.50;99.90;;;;;;4986982;28;20559;-87
2023/09/27 04:54:03;;;;;;;16.90;14.37;;;12.50;99.90;;;;;;4995398;28;20283;-87
2023/09/27 04:56:30;;;;;;;17.50;14.90;;;12.50;99.90;;;;;;4982213;28;20193;-88
2023/09/27 04:59:01;;;;;;;19.23;15.10;;;12.50;99.90;;;;;;4995010;28;20177;-88
2023/09/27 05:01:26;;;;;;;17.30;14.47;;;12.50;99.90;;;;;;4992702;28;20219;-89
2023/09/27 05:03:52;;;;;;;18.17;15.00;;;12.50;99.90;;;;;;4983552;28;20201;-89
2023/09/27 05:06:18;;;;;;;18.50;15.00;;;12.40;99.90;;;;;;4987660;28;20201;-85
2023/09/27 05:08:44;;;;;;;18.87;14.20;;;12.40;99.90;;;;;;4989171;28;20272;-89
2023/09/27 05:11:10;;;;;;;17.20;15.00;;;12.40;99.90;;;;;;4994537;28;20208;-89
2023/09/27 05:13:35;;;;;;;20.73;15.30;;;12.30;99.90;;;;;;4978655;28;20259;-87
2023/09/27 05:16:01;;;;;;;19.30;15.27;;;12.30;99.90;;;;;;4991974;28;20257;-85
2023/09/27 05:18:27;;;;;;;18.43;15.37;;;12.40;99.90;;;;;;4989403;28;20212;-87
2023/09/27 05:20:52;;;;;;;15.90;14.20;;;12.40;99.90;;;;;;4982855;28;20212;-86
2023/09/27 05:23:18;;;;;;;17.80;14.43;;;12.30;99.90;;;;;;4992848;28;20189;-87
2023/09/27 05:25:44;;;;;;;18.50;15.67;;;12.30;99.90;;;;;;4994107;28;20204;-86
2023/09/27 05:28:09;;;;;;;21.87;16.80;;;12.30;99.90;;;;;;4991213;28;20185;-87
2023/09/27 05:30:35;;;;;;;18.37;15.97;;;12.30;99.90;;;;;;4994224;28;20260;-87
2023/09/27 05:33:02;;;;;;;21.20;15.63;;;12.30;99.90;;;;;;4987763;28;20239;-87
2023/09/27 05:35:28;;;;;;;18.83;15.40;;;12.30;99.90;;;;;;4992265;28;20173;-87
2023/09/27 05:37:54;;;;;;;22.10;15.20;;;12.30;99.90;;;;;;4981421;28;20726;-87
2023/09/27 05:40:19;;;;;;;19.50;16.57;;;12.40;99.90;;;;;;4994196;28;20213;-85
2023/09/27 05:42:46;;;;;;;18.63;15.23;;;12.40;99.90;;;;;;4994631;28;20263;-88
2023/09/27 05:45:13;;;;;;;22.30;15.77;;;12.50;99.90;;;;;;4987937;28;20185;-87
2023/09/27 05:47:39;;;;;;;20.97;15.77;;;12.60;99.90;;;;;;4983812;28;20173;-87
2023/09/27 05:50:08;;;;;;;23.37;16.73;;;12.60;99.90;;;;;;4989911;28;20331;-87
2023/09/27 05:52:37;;;;;;;26.57;17.57;;;12.70;99.90;;;;;;4984707;28;20180;-87
2023/09/27 05:55:06;;;;;;;22.70;16.07;;;12.90;99.90;;;;;;4994200;28;20184;-87
2023/09/27 05:57:32;;;;;;;23.47;16.87;;;13.00;99.90;;;;;;4985384;28;20197;-87
2023/09/27 05:59:58;;;;;;;20.67;16.57;;;13.20;99.90;;;;;;4991135;28;20215;-87
2023/09/27 06:02:30;;;;;;;23.97;16.83;;;13.30;99.90;;;;;;4984119;28;20553;-87
2023/09/27 06:04:57;;;;;;;19.00;16.07;;;13.40;99.90;;;;;;4995370;28;20173;-87
2023/09/27 06:07:23;;;;;;;20.37;16.67;;;13.50;99.90;;;;;;4985596;28;20197;-87
2023/09/27 06:09:50;;;;;;;23.70;17.27;;;13.60;99.90;;;;;;4994050;28;20196;-87
2023/09/27 06:12:16;;;;;;;22.07;16.83;;;13.70;99.90;;;;;;4993173;28;20281;-86
2023/09/27 06:14:43;;;;;;;23.63;17.50;;;13.80;99.90;;;;;;4988595;28;20181;-87
2023/09/27 06:17:15;;;;;;;20.77;15.37;;;13.90;99.90;;;;;;4983575;28;20276;-87
2023/09/27 06:19:41;;;;;;;25.07;16.83;;;14.00;99.90;;;;;;4955069;28;20272;-87
2023/09/27 06:22:08;;;;;;;20.00;16.07;;;14.10;99.90;;;;;;4989204;28;20271;-86
2023/09/27 06:24:33;;;;;;;20.90;17.00;;;14.10;99.90;;;;;;4994072;28;20180;-86
2023/09/27 06:26:59;;;;;;;21.27;16.57;;;14.20;99.90;;;;;;4980530;28;20212;-86
2023/09/27 06:29:25;;;;;;;18.07;16.13;;;14.30;99.90;;;;;;4995403;28;20184;-87
2023/09/27 06:31:51;;;;;;;17.97;16.07;;;14.40;99.90;;;;;;4993141;28;20710;-87
2023/09/27 06:34:17;;;;;;;17.80;15.43;;;14.40;99.90;;;;;;4989173;28;20265;-87
2023/09/27 06:36:43;;;;;;;18.20;14.93;;;14.40;99.90;;;;;;4986500;28;20215;-87
2023/09/27 06:39:13;;;;;;;25.10;16.67;;;14.40;99.90;;;;;;4994654;28;20285;-87
2023/09/27 06:41:43;;;;;;;20.10;14.93;;;14.40;99.90;;;;;;4992978;28;20173;-87
2023/09/27 06:44:09;;;;;;;18.97;15.87;;;14.50;99.90;;;;;;4993408;28;20480;-87
2023/09/27 06:46:35;;;;;;;19.13;15.83;;;14.40;99.90;;;;;;4985005;28;20251;-87
2023/09/27 06:49:03;;;;;;;21.93;16.00;;;14.50;99.90;;;;;;4984667;28;20211;-87
2023/09/27 06:51:29;;;;;;;18.80;14.77;;;14.50;99.90;;;;;;4983100;28;20690;-87
2023/09/27 06:53:55;;;;;;;19.17;15.27;;;14.50;99.90;;;;;;4987770;28;20181;-87
2023/09/27 06:56:21;;;;;;;17.53;15.20;;;14.50;99.90;;;;;;4984635;28;20724;-90
2023/09/27 06:58:48;;;;;;;18.93;15.30;;;14.50;99.90;;;;;;4983584;28;20177;-87
2023/09/27 07:01:15;;;;;;;20.03;14.70;;;14.60;99.90;;;;;;4994405;28;20196;-87
2023/09/27 07:03:40;;;;;;;20.80;15.17;;;14.70;99.90;;;;;;4991905;28;20177;-87
2023/09/27 07:06:06;;;;;;;21.13;15.83;;;14.90;99.90;;;;;;4987605;28;20687;-88
2023/09/27 07:08:33;;;;;;;19.30;15.77;;;15.10;99.90;;;;;;4992670;28;20187;-87
2023/09/27 07:11:06;;;;;;;15.53;13.40;;;15.20;99.90;;;;;;4992435;28;20295;-87
2023/09/27 07:13:32;;;;;;;19.20;14.10;;;15.40;99.90;;;;;;4991896;28;20580;-88
2023/09/27 07:15:59;;;;;;;21.33;14.47;;;15.50;99.90;;;;;;4980576;28;20232;-88
2023/09/27 07:18:26;;;;;;;23.20;14.33;;;15.70;99.90;;;;;;4989385;28;20177;-88
2023/09/27 07:20:54;;;;;;;19.77;14.10;;;15.80;99.90;;;;;;4980555;28;20176;-88
2023/09/27 07:23:20;;;;;;;18.17;13.93;;;15.90;99.90;;;;;;4985723;28;20594;-85
2023/09/27 07:25:47;;;;;;;15.40;12.47;;;16.00;99.90;;;;;;4993253;28;20207;-87
2023/09/27 07:28:13;;;;;;;14.50;13.00;;;16.00;99.90;;;;;;4997620;28;20200;-86
2023/09/27 07:30:40;;;;;;;13.77;12.33;;;16.10;99.90;;;;;;5012059;28;20184;-86
2023/09/27 07:33:09;;;;;;;14.50;13.00;;;16.30;99.90;;;;;;5005067;28;20181;-87
2023/09/27 07:35:38;;;;;;;12.70;11.47;;;16.50;99.90;;;;;;5003483;28;20264;-87
2023/09/27 07:38:04;;;;;;;12.27;10.97;;;16.80;99.90;;;;;;4986956;28;20576;-87
2023/09/27 07:40:30;;;;;;;9.83;8.83;;;17.00;99.90;;;;;;4982686;28;20181;-87
2023/09/27 07:42:56;;;;;;;10.90;9.17;;;17.10;99.90;;;;;;4984936;28;20579;-87
2023/09/27 07:45:21;;;;;;;10.43;9.00;;;17.20;99.90;;;;;;4975156;28;20192;-88
2023/09/27 07:47:49;;;;;;;9.50;8.60;;;17.30;99.90;;;;;;4993225;28;20304;-88
2023/09/27 07:50:15;;;;;;;12.20;8.60;;;17.40;99.90;;;;;;4986067;28;20181;-87
2023/09/27 07:52:42;;;;;;;12.13;8.80;;;17.50;99.90;;;;;;4983516;28;20184;-87
2023/09/27 07:55:10;;;;;;;9.07;8.13;;;17.60;99.90;;;;;;4993009;28;20177;-88
2023/09/27 07:57:36;;;;;;;10.33;7.97;;;17.60;99.90;;;;;;4991407;28;20196;-87
2023/09/27 08:00:08;;;;;;;9.00;8.10;;;17.80;99.90;;;;;;4991060;28;20189;-88
2023/09/27 08:02:34;;;;;;;8.77;7.97;;;18.00;99.90;;;;;;4983323;28;20247;-88
2023/09/27 08:05:02;;;;;;;8.67;6.77;;;18.50;99.90;;;;;;4991080;28;20662;-87
2023/09/27 08:07:28;;;;;;;8.27;6.87;;;19.00;99.90;;;;;;4990709;28;20675;-87
2023/09/27 08:09:56;;;;;;;7.70;6.53;;;19.60;99.90;;;;;;4977429;28;20173;-92
2023/09/27 08:12:24;;;;;;;8.73;6.93;;;19.90;99.90;;;;;;4957446;28;20226;-87
2023/09/27 08:14:50;;;;;;;10.88;6.45;;;20.00;99.90;;;;;;4983075;28;20212;-87
2023/09/27 08:17:15;;;;;;;7.85;6.85;;;20.10;99.90;;;;;;4991692;28;20196;-87
2023/09/27 08:19:41;;;;;;;11.83;7.60;;;20.10;99.90;;;;;;4990934;28;20655;-87
2023/09/27 08:22:09;;;;;;;7.30;6.60;;;20.00;99.90;;;;;;4990884;28;20199;-86
2023/09/27 08:24:35;;;;;;;7.95;6.43;;;20.10;99.90;;;;;;4991244;28;20181;-86
2023/09/27 08:27:01;;;;;;;8.40;6.72;;;20.30;99.90;;;;;;4991201;28;20675;-87
2023/09/27 08:29:27;;;;;;;7.65;6.85;;;20.40;99.90;;;;;;4991922;28;20180;-87
2023/09/27 08:31:53;;;;;;;6.72;6.03;;;20.60;99.90;;;;;;4990662;28;20208;-87
2023/09/27 08:34:18;;;;;;;8.52;6.53;;;20.90;99.90;;;;;;4991182;28;20173;-87
2023/09/27 08:36:45;;;;;;;6.53;5.82;;;21.20;99.90;;;;;;4987465;28;20193;-87
2023/09/27 08:39:11;;;;;;;8.27;6.07;;;21.50;99.90;;;;;;4986111;28;20188;-86
2023/09/27 08:41:38;;;;;;;10.90;5.97;;;21.60;99.90;;;;;;4991710;28;20184;-87
2023/09/27 08:44:05;;;;;;;10.32;6.53;;;21.70;99.90;;;;;;4991259;28;20181;-87
2023/09/27 08:46:34;;;;;;;8.98;6.28;;;21.80;99.90;;;;;;4992667;28;20733;-87
2023/09/27 08:49:02;;;;;;;6.47;5.85;;;22.00;99.90;;;;;;4992406;28;20213;-87
2023/09/27 08:51:29;;;;;;;6.97;6.07;;;22.20;99.90;;;;;;4990755;28;20212;-87
2023/09/27 08:53:55;;;;;;;6.78;5.18;;;22.30;99.90;;;;;;4990793;28;20185;-87
2023/09/27 08:56:26;;;;;;;5.72;5.22;;;22.50;99.90;;;;;;4991418;28;20199;-87
2023/09/27 08:58:52;;;;;;;6.85;4.40;;;22.70;99.90;;;;;;4976095;28;20212;-87
2023/09/27 09:01:18;;;;;;;6.15;5.03;;;23.00;99.90;;;;;;4991964;28;20185;-87
2023/09/27 09:03:46;;;;;;;6.97;5.18;;;23.40;99.90;;;;;;4974633;28;20259;-87
2023/09/27 09:06:12;;;;;;;6.80;5.07;;;23.90;99.90;;;;;;4990364;28;20208;-87
2023/09/27 09:08:42;;;;;;;6.57;4.88;;;24.10;99.90;;;;;;4983831;28;20181;-87
2023/09/27 09:11:13;;;;;;;5.15;4.50;;;24.50;99.90;;;;;;4990714;28;20201;-87
2023/09/27 09:14:03;;;;;;;5.78;5.18;;;24.90;99.90;;;;;;4990720;28;20272;-87
2023/09/27 09:16:39;;;;;;;6.32;4.13;;;25.20;99.90;;;;;;4991723;28;20197;-86
2023/09/27 09:19:25;;;;;;;6.30;4.43;;;25.40;99.90;;;;;;4977328;28;20675;-87
2023/09/27 09:22:05;;;;;;;4.88;4.45;;;25.50;99.90;;;;;;4982931;28;20184;-87
2023/09/27 09:24:37;;;;;;;8.25;4.03;;;25.30;99.90;;;;;;4980271;28;20170;-87
2023/09/27 09:27:10;;;;;;;9.70;4.65;;;25.00;99.90;;;;;;4976961;28;20231;-87
2023/09/27 09:29:50;;;;;;;4.55;4.10;;;25.00;99.90;;;;;;4993342;28;20557;-87
2023/09/27 09:32:21;;;;;;;3.88;3.55;;;25.10;99.90;;;;;;4984742;28;20209;-87
2023/09/27 09:34:52;;;;;;;3.63;3.33;;;25.40;99.90;;;;;;4981373;28;20186;-87
2023/09/27 09:37:30;;;;;;;4.63;3.35;;;25.50;99.90;;;;;;4986684;28;20276;-87
2023/09/27 09:40:14;;;;;;;4.00;3.70;;;25.70;99.90;;;;;;4993468;28;20191;-87
2023/09/27 09:42:42;;;;;;;4.38;4.00;;;25.90;99.90;;;;;;4993140;28;20268;-87
2023/09/27 09:45:11;;;;;;;4.00;3.60;;;25.70;99.90;;;;;;4993948;28;20247;-87
2023/09/27 09:47:43;;;;;;;4.32;3.92;;;25.60;99.90;;;;;;4994920;28;20181;-87
2023/09/27 09:50:17;;;;;;;7.45;4.10;;;25.60;99.90;;;;;;4996791;28;20176;-87
2023/09/27 09:52:57;;;;;;;4.82;4.13;;;25.70;99.90;;;;;;4976411;28;20244;-89
2023/09/27 09:55:29;;;;;;;5.70;4.38;;;26.00;99.90;;;;;;4994865;28;20183;-87
2023/09/27 09:58:20;;;;;;;5.15;4.65;;;25.90;99.90;;;;;;4995938;28;20180;-87
2023/09/27 10:00:52;;;;;;;11.00;4.38;;;25.40;99.90;;;;;;4994730;28;20203;-87
2023/09/27 10:03:21;;;;;;;5.43;4.50;;;25.20;99.90;;;;;;4986351;28;20282;-87
2023/09/27 10:05:50;;;;;;;8.77;4.15;;;25.20;99.90;;;;;;4985436;28;20643;-87
2023/09/27 10:08:17;;;;;;;9.70;4.75;;;25.20;99.90;;;;;;4984848;28;20726;-88
2023/09/27 10:10:43;;;;;;;5.22;4.80;;;25.30;99.90;;;;;;4982886;28;20234;-87
2023/09/27 10:13:10;;;;;;;5.80;5.22;;;25.50;99.90;;;;;;4984355;28;20173;-87
2023/09/27 10:15:39;;;;;;;5.72;3.75;;;25.60;99.90;;;;;;4989260;28;20205;-88
2023/09/27 10:18:23;;;;;;;7.57;4.20;;;25.80;99.90;;;;;;4962947;28;20188;-88
2023/09/27 10:21:12;;;;;;;7.10;4.28;;;25.90;99.90;;;;;;4990375;28;20182;-88
2023/09/27 10:23:47;;;;;;;5.60;5.10;;;26.00;99.90;;;;;;4996162;28;20177;-87
2023/09/27 10:26:20;;;;;;;4.60;4.20;;;26.20;99.90;;;;;;4995944;28;20227;-87
2023/09/27 10:29:03;;;;;;;4.40;4.10;;;26.30;99.90;;;;;;5000345;28;20177;-87
2023/09/27 10:31:36;;;;;;;4.10;3.80;;;26.30;99.90;;;;;;4987390;28;20200;-87
2023/09/27 10:34:25;;;;;;;4.70;3.70;;;26.50;99.90;;;;;;4991070;28;20181;-87
2023/09/27 10:36:51;;;;;;;4.28;3.38;;;26.80;99.90;;;;;;4987075;28;20223;-87
2023/09/27 10:39:17;;;;;;;6.07;4.93;;;27.00;99.90;;;;;;4998480;28;20181;-87
2023/09/27 10:41:46;;;;;;;5.65;4.32;;;27.30;99.90;;;;;;4996738;28;20207;-87
2023/09/27 10:44:15;;;;;;;4.78;3.85;;;27.50;99.90;;;;;;4990410;28;20200;-87
2023/09/27 10:46:48;;;;;;;4.50;3.33;;;27.50;99.90;;;;;;4988768;28;20201;-87
2023/09/27 10:49:25;;;;;;;3.88;3.58;;;27.60;99.90;;;;;;5001118;28;20173;-87
2023/09/27 10:51:52;;;;;;;4.10;3.70;;;27.50;99.90;;;;;;4993805;28;20422;-87
2023/09/27 10:54:24;;;;;;;5.20;3.42;;;27.20;99.90;;;;;;5000648;28;20188;-87
2023/09/27 10:56:53;;;;;;;3.42;3.20;;;27.10;99.90;;;;;;4968819;28;20221;-87
2023/09/27 10:59:28;;;;;;;3.50;3.20;;;27.20;99.90;;;;;;5003992;28;20207;-87
2023/09/27 11:01:55;;;;;;;8.18;3.80;;;27.20;99.90;;;;;;4987064;28;20258;-87
2023/09/27 11:04:23;;;;;;;3.95;3.35;;;27.10;99.90;;;;;;4989722;28;20197;-87
2023/09/27 11:06:50;;;;;;;4.65;3.70;;;27.10;99.90;;;;;;4993654;28;20275;-86
2023/09/27 11:09:19;;;;;;;4.00;3.70;;;26.80;99.90;;;;;;4994641;28;20716;-87
2023/09/27 11:11:48;;;;;;;3.58;3.28;;;26.70;99.90;;;;;;4993153;28;20187;-87
2023/09/27 11:14:34;;;;;;;5.05;3.72;;;26.60;99.90;;;;;;4993656;28;20185;-87
2023/09/27 11:17:23;;;;;;;4.18;3.70;;;26.70;99.90;;;;;;4988092;28;20225;-87
2023/09/27 11:19:49;;;;;;;4.03;3.10;;;26.90;99.90;;;;;;4994028;28;20718;-87
2023/09/27 11:22:28;;;;;;;5.82;3.40;;;27.20;99.90;;;;;;4994221;28;20327;-87
2023/09/27 11:24:54;;;;;;;5.45;3.15;;;27.60;99.90;;;;;;4993421;28;20180;-87
2023/09/27 11:27:20;;;;;;;3.00;2.80;;;27.90;99.90;;;;;;4994850;28;20250;-88
2023/09/27 11:29:53;;;;;;;3.95;3.58;;;28.00;99.90;;;;;;4994698;28;20173;-87
2023/09/27 11:32:22;;;;;;;6.25;3.13;;;27.70;99.90;;;;;;5005937;28;20187;-87
2023/09/27 11:34:58;;;;;;;3.28;2.97;;;27.50;99.90;;;;;;4984949;28;20248;-87
2023/09/27 11:37:25;;;;;;;4.63;3.17;;;27.50;99.90;;;;;;4973119;28;20227;-87
2023/09/27 11:39:52;;;;;;;3.53;3.20;;;27.50;99.90;;;;;;4992115;28;20181;-87
2023/09/27 11:42:22;;;;;;;4.38;2.70;;;27.30;99.90;;;;;;4991649;28;20209;-87
2023/09/27 11:45:08;;;;;;;3.75;3.08;;;27.10;99.90;;;;;;4991549;28;20234;-87
2023/09/27 11:47:47;;;;;;;4.20;3.80;;;26.80;99.90;;;;;;4988178;28;20573;-86
2023/09/27 11:50:17;;;;;;;4.20;3.20;;;26.70;99.90;;;;;;4989369;28;20191;-86
2023/09/27 11:52:46;;;;;;;3.40;3.10;;;26.80;99.90;;;;;;4992485;28;20169;-87
2023/09/27 11:55:12;;;;;;;4.30;2.90;;;26.80;99.90;;;;;;4986389;28;20182;-87
2023/09/27 11:57:38;;;;;;;3.13;2.80;;;26.80;99.90;;;;;;4988728;28;20643;-87
2023/09/27 12:00:08;;;;;;;3.00;2.80;;;26.80;99.90;;;;;;4986929;28;20203;-87
2023/09/27 12:02:35;;;;;;;3.67;2.92;;;26.70;99.90;;;;;;4992639;28;20173;-86
2023/09/27 12:05:01;;;;;;;5.15;3.53;;;26.40;99.90;;;;;;4991480;28;20177;-87
2023/09/27 12:07:27;;;;;;;3.45;3.15;;;26.20;99.90;;;;;;4991078;28;20207;-87
2023/09/27 12:09:56;;;;;;;4.60;3.15;;;26.20;99.90;;;;;;4991126;28;20180;-86
2023/09/27 12:12:22;;;;;;;3.97;3.60;;;26.50;99.90;;;;;;4984482;28;20248;-87
2023/09/27 12:14:49;;;;;;;4.40;3.10;;;26.80;99.90;;;;;;4983580;28;20197;-87
2023/09/27 12:17:15;;;;;;;5.55;3.22;;;27.10;99.90;;;;;;4989133;28;20627;-87
2023/09/27 12:19:42;;;;;;;2.90;2.70;;;27.40;99.90;;;;;;4992364;28;20643;-87
2023/09/27 12:22:13;;;;;;;7.07;3.28;;;27.40;99.90;;;;;;4991142;28;20208;-88
2023/09/27 12:24:39;;;;;;;3.00;2.72;;;27.50;99.90;;;;;;4991310;28;20177;-89
2023/09/27 12:27:05;;;;;;;4.03;3.00;;;27.50;99.90;;;;;;4991125;28;20577;-87
2023/09/27 12:29:30;;;;;;;4.75;2.88;;;27.50;99.90;;;;;;4974926;28;20181;-88
2023/09/27 12:31:56;;;;;;;3.40;3.10;;;27.40;99.90;;;;;;4986396;28;20566;-87
2023/09/27 12:34:22;;;;;;;4.70;2.95;;;27.50;99.90;;;;;;4984211;28;20188;-87
2023/09/27 12:36:48;;;;;;;4.35;2.90;;;27.70;99.90;;;;;;4990496;28;20657;-87
2023/09/27 12:39:14;;;;;;;3.70;2.83;;;27.70;99.90;;;;;;4975058;28;20243;-87